Airport View

Enter AWOS ICAO identifier for current METAR.

ex. KFNL

KSUE 191856Z AUTO 36010KT 10SM CLR 19/12 A2982 RMK AO2 SLP096 T01940117

19 Jun 2019 19:50

Frequency: 128.325

Phone: 920-743-7087

Other Area AWOS: KMNM - K3D2 - KOCQ - KGRB

KGRB 191729Z 1918/2018 05009KT P6SM FEW035 FM200700 03008KT P6SM BKN035 FM201100 02007KT P6SM SCT035 FM201600 04010KT P6SM SCT040